Main page
METAR-TAF:

METAR-TAF

Airports :

Zakynthos, Greece

Zakynthos International Airport

latitude: 37-45N, longitude: 020-53E, elevation: 3 m

Current weather observation

The report was made 1 hour and 8 minutes ago, at 08:50 UTC
Wind 7 kt from the Northwest
Temperature 20°C
Humidity 73%
Pressure 1022 hPa
Visibility: 9000 m
Few clouds at a height of 1800 ft

METAR: LGZA 190850Z 32007KT 9000 FEW018 20/15 Q1022

Time: 12:58 (09:58 UTC)

Forecast

The report was made 1 hour and 58 minutes ago, at 08:00 UTC
Forecast valid from 19 at 09 UTC to 19 at 18 UTC
Wind 8 kt from the North/Northeast
Visibility: 9000 m
Few clouds at a height of 1800 ft

TAF: LGZA 190800Z 1909/1918 03008KT 9000 FEW018

Weather observations and forecasts of more than 4000 airports (METAR and TAF reports).

The available stations are represented by yellow and red dots on the map.

Hover mouse over dot to see the name of the station.

Then click to see weather observations and forecasts.

To change the map : click on the green buttons with a black cross to zoom in, on the green button with a dash to zoom out, or on the green arrows for adjacent maps.


METAR-TAF: